createdAt,value
2019-04-03T00:00:12.677Z,13.21
2019-04-03T00:03:16.203Z,13.16
2019-04-03T00:06:19.589Z,13.20
2019-04-03T00:09:22.960Z,13.17
2019-04-03T00:12:26.296Z,13.12
2019-04-03T00:15:29.599Z,13.12
2019-04-03T00:18:32.915Z,13.05
2019-04-03T00:21:36.274Z,13.03
2019-04-03T00:24:39.659Z,13.01
2019-04-03T00:27:43.000Z,12.92
2019-04-03T00:30:46.411Z,12.85
2019-04-03T00:33:49.765Z,12.75
2019-04-03T00:36:53.684Z,12.70
2019-04-03T00:39:57.094Z,12.72
2019-04-03T00:43:00.454Z,12.77
2019-04-03T00:46:03.788Z,12.66
2019-04-03T00:49:07.158Z,12.59
2019-04-03T00:52:10.460Z,12.53
2019-04-03T00:55:13.776Z,12.49
2019-04-03T00:58:36.944Z,12.55
2019-04-03T01:01:40.273Z,12.54
2019-04-03T01:04:43.590Z,12.50
2019-04-03T01:07:46.928Z,12.47
2019-04-03T01:10:50.450Z,12.43
2019-04-03T01:13:53.745Z,12.45
2019-04-03T01:16:57.100Z,12.31
2019-04-03T01:20:00.433Z,12.29
2019-04-03T01:23:03.907Z,12.19
2019-04-03T01:26:09.332Z,12.16
2019-04-03T01:29:12.751Z,12.06
2019-04-03T01:32:16.394Z,12.07
2019-04-03T01:35:19.770Z,12.05
2019-04-03T01:38:23.105Z,12.15
2019-04-03T01:41:26.419Z,12.12
2019-04-03T01:44:29.797Z,12.13
2019-04-03T01:47:33.174Z,12.09
2019-04-03T01:50:36.559Z,12.18
2019-04-03T01:53:39.910Z,12.16
2019-04-03T01:56:43.354Z,12.03
2019-04-03T01:59:46.740Z,12.11
2019-04-03T02:02:50.147Z,12.06
2019-04-03T02:05:53.607Z,12.07
2019-04-03T02:08:56.968Z,11.98
2019-04-03T02:12:00.349Z,12.06
2019-04-03T02:15:03.669Z,12.08
2019-04-03T02:18:07.151Z,12.04
2019-04-03T02:21:10.476Z,12.01
2019-04-03T02:24:13.823Z,11.94
2019-04-03T02:27:17.169Z,11.83
2019-04-03T02:30:20.648Z,11.75
2019-04-03T02:33:24.158Z,11.83
2019-04-03T02:36:27.494Z,11.94
2019-04-03T02:39:31.078Z,11.78
2019-04-03T02:42:34.446Z,11.64
2019-04-03T02:45:37.806Z,11.64
2019-04-03T02:48:41.376Z,11.67
2019-04-03T02:51:44.693Z,11.71
2019-04-03T02:54:48.147Z,11.64
2019-04-03T02:57:52.003Z,11.70
2019-04-03T03:00:55.632Z,11.60
2019-04-03T03:03:58.975Z,11.64
2019-04-03T03:07:04.489Z,11.64
2019-04-03T03:10:08.318Z,11.48
2019-04-03T03:13:11.747Z,11.49
2019-04-03T03:16:18.020Z,11.59
2019-04-03T03:19:20.166Z,11.49
2019-04-03T03:22:23.501Z,11.45
2019-04-03T03:25:27.402Z,11.39
2019-04-03T03:28:30.789Z,11.36
2019-04-03T03:32:00.141Z,11.34
2019-04-03T03:34:54.827Z,11.23
2019-04-03T03:37:44.644Z,11.27
2019-04-03T03:40:49.308Z,11.10
2019-04-03T03:43:53.133Z,11.14
2019-04-03T03:46:59.950Z,11.13
2019-04-03T03:50:01.876Z,11.05
2019-04-03T03:53:05.275Z,10.97
2019-04-03T03:56:08.675Z,10.99
2019-04-03T03:59:12.057Z,10.98
2019-04-03T04:02:15.424Z,10.95
2019-04-03T04:05:21.423Z,10.95
2019-04-03T04:08:24.250Z,10.91
2019-04-03T04:11:28.110Z,10.93
2019-04-03T04:14:32.948Z,10.86
2019-04-03T04:17:36.297Z,11.02
2019-04-03T04:20:40.059Z,10.99
2019-04-03T04:23:43.390Z,10.92
2019-04-03T04:26:49.641Z,11.00
2019-04-03T04:29:51.912Z,10.77
2019-04-03T04:32:55.534Z,10.80
2019-04-03T04:35:59.081Z,10.75
2019-04-03T04:39:02.914Z,10.84
2019-04-03T04:42:06.235Z,10.91
2019-04-03T04:45:11.264Z,10.88
2019-04-03T04:48:16.774Z,10.97
2019-04-03T04:51:19.732Z,10.94
2019-04-03T04:54:23.084Z,10.94
2019-04-03T04:57:26.605Z,10.95
2019-04-03T05:00:30.353Z,10.87
2019-04-03T05:03:33.805Z,10.89
2019-04-03T05:06:37.262Z,10.86
2019-04-03T05:09:40.598Z,10.85
2019-04-03T05:12:45.552Z,10.96
2019-04-03T05:15:48.964Z,11.04
2019-04-03T05:18:52.298Z,11.14
2019-04-03T05:21:55.650Z,11.10
2019-04-03T05:24:59.965Z,11.25
2019-04-03T05:28:04.513Z,11.30
2019-04-03T05:31:08.897Z,11.30
2019-04-03T05:34:13.297Z,11.38
2019-04-03T05:37:19.715Z,11.46
2019-04-03T05:40:21.854Z,11.38
2019-04-03T05:43:25.202Z,11.60
2019-04-03T05:46:28.533Z,11.61
2019-04-03T05:49:31.846Z,11.55
2019-04-03T05:52:35.720Z,11.85
2019-04-03T05:55:40.982Z,11.97
2019-04-03T05:58:54.610Z,12.07
2019-04-03T06:01:49.588Z,11.98
2019-04-03T06:04:53.221Z,11.99
2019-04-03T06:07:56.486Z,11.94
2019-04-03T06:11:02.800Z,11.90
2019-04-03T06:14:05.046Z,11.96
2019-04-03T06:17:10.090Z,12.15
2019-04-03T06:20:13.420Z,12.17
2019-04-03T06:23:16.765Z,12.36
2019-04-03T06:26:20.068Z,12.35
2019-04-03T06:29:23.498Z,12.52
2019-04-03T06:32:29.136Z,12.64
2019-04-03T06:35:34.762Z,12.57
2019-04-03T06:38:37.337Z,12.68
2019-04-03T06:41:41.993Z,12.60
2019-04-03T06:44:45.866Z,12.53
2019-04-03T06:47:49.474Z,12.56
2019-04-03T06:50:52.819Z,12.69
2019-04-03T06:53:58.792Z,12.72
2019-04-03T06:57:01.408Z,12.93
2019-04-03T07:00:05.428Z,13.12
2019-04-03T07:03:09.023Z,12.78
2019-04-03T07:06:13.115Z,13.14
2019-04-03T07:09:23.548Z,13.32
2019-04-03T07:12:22.111Z,13.06
2019-04-03T07:15:25.578Z,13.20
2019-04-03T07:18:29.120Z,13.73
2019-04-03T07:21:32.518Z,13.98
2019-04-03T07:24:36.021Z,14.00
2019-04-03T07:27:41.811Z,14.12
2019-04-03T07:30:44.475Z,14.72
2019-04-03T07:33:49.573Z,15.09
2019-04-03T07:36:53.017Z,15.12
2019-04-03T07:39:58.708Z,14.68
2019-04-03T07:43:01.491Z,14.55
2019-04-03T07:46:04.914Z,14.62
2019-04-03T07:49:08.972Z,15.32
2019-04-03T07:52:14.897Z,15.04
2019-04-03T07:55:18.285Z,14.66
2019-04-03T07:58:24.433Z,15.54
2019-04-03T08:01:26.754Z,15.87
2019-04-03T08:04:30.155Z,16.97
2019-04-03T08:07:33.833Z,17.29
2019-04-03T08:10:37.917Z,17.26
2019-04-03T08:13:41.479Z,17.87
2019-04-03T08:16:45.934Z,18.34
2019-04-03T08:19:50.379Z,17.88
2019-04-03T08:22:53.906Z,18.63
2019-04-03T08:25:57.333Z,18.07
2019-04-03T08:29:01.753Z,19.64
2019-04-03T08:32:06.040Z,18.36
2019-04-03T08:35:20.354Z,17.62
2019-04-03T08:38:14.571Z,17.00
2019-04-03T08:41:17.987Z,17.89
2019-04-03T08:44:21.391Z,17.33
2019-04-03T08:47:24.997Z,17.16
2019-04-03T08:50:29.161Z,17.33
2019-04-03T08:53:32.815Z,17.08
2019-04-03T08:56:36.259Z,17.25
2019-04-03T08:59:39.670Z,18.20
2019-04-03T09:02:47.862Z,18.41
2019-04-03T09:05:55.406Z,18.42
2019-04-03T09:09:00.846Z,18.84
2019-04-03T09:12:05.606Z,19.08
2019-04-03T09:15:09.700Z,20.51
2019-04-03T09:18:13.126Z,19.67
2019-04-03T09:21:16.614Z,18.51
2019-04-03T09:24:20.117Z,19.32
2019-04-03T09:27:23.480Z,19.31
2019-04-03T09:30:27.197Z,19.12
2019-04-03T09:33:30.603Z,18.82
2019-04-03T09:36:34.885Z,18.96
2019-04-03T09:39:38.933Z,19.45
2019-04-03T09:42:42.346Z,18.89
2019-04-03T09:45:45.918Z,18.18
2019-04-03T09:48:49.365Z,18.38
2019-04-03T09:51:53.143Z,18.05
2019-04-03T09:54:58.243Z,18.89
2019-04-03T09:58:03.228Z,18.12
2019-04-03T10:01:07.202Z,17.48
2019-04-03T10:04:10.859Z,17.33
2019-04-03T10:07:14.480Z,17.60
2019-04-03T10:10:18.219Z,17.15
2019-04-03T10:13:24.777Z,17.03
2019-04-03T10:16:26.738Z,17.93
2019-04-03T10:19:30.253Z,17.85
2019-04-03T10:22:33.694Z,17.21
2019-04-03T10:25:38.045Z,17.78
2019-04-03T10:28:42.933Z,19.30
2019-04-03T10:31:46.571Z,19.43
2019-04-03T10:34:50.084Z,20.04
2019-04-03T10:37:53.497Z,20.74
2019-04-03T10:40:57.143Z,20.08
2019-04-03T10:44:00.686Z,20.63
2019-04-03T10:47:04.108Z,20.06
2019-04-03T10:50:07.600Z,19.31
2019-04-03T10:53:11.073Z,19.90
2019-04-03T10:56:14.535Z,19.34
2019-04-03T10:59:18.967Z,19.67
2019-04-03T11:02:22.599Z,20.62
2019-04-03T11:05:26.100Z,21.15
2019-04-03T11:08:29.622Z,21.81
2019-04-03T11:11:33.384Z,21.40
2019-04-03T11:14:39.008Z,22.35
2019-04-03T11:17:42.129Z,22.25
2019-04-03T11:20:45.658Z,21.49
2019-04-03T11:23:49.232Z,20.51
2019-04-03T11:26:53.189Z,19.65
2019-04-03T11:29:57.106Z,19.26
2019-04-03T11:33:00.645Z,18.96
2019-04-03T11:36:04.359Z,19.30
2019-04-03T11:39:14.837Z,19.11
2019-04-03T11:42:23.979Z,18.77
2019-04-03T11:45:19.640Z,18.20
2019-04-03T11:48:23.044Z,18.73
2019-04-03T11:51:28.920Z,18.48
2019-04-03T11:54:31.751Z,19.09
2019-04-03T11:57:35.180Z,19.51
2019-04-03T12:00:46.425Z,19.35
2019-04-03T12:03:51.142Z,19.18
2019-04-03T12:06:55.282Z,19.35
2019-04-03T12:09:58.816Z,21.03
2019-04-03T12:13:03.812Z,21.91
2019-04-03T12:16:07.570Z,22.22
2019-04-03T12:19:11.385Z,22.88
2019-04-03T12:22:15.366Z,22.39
2019-04-03T12:25:18.886Z,22.18
2019-04-03T12:28:22.275Z,21.45
2019-04-03T12:31:25.686Z,22.41
2019-04-03T12:34:29.390Z,21.05
2019-04-03T12:37:32.889Z,21.04
2019-04-03T12:40:36.858Z,20.67
2019-04-03T12:43:40.790Z,20.68
2019-04-03T12:46:44.692Z,22.03
2019-04-03T12:49:48.133Z,22.79
2019-04-03T12:52:51.684Z,22.36
2019-04-03T12:55:57.114Z,22.92
2019-04-03T12:59:00.172Z,23.49
2019-04-03T13:02:03.788Z,22.62
2019-04-03T13:05:07.752Z,22.25
2019-04-03T13:08:11.398Z,21.33
2019-04-03T13:11:15.446Z,21.19
2019-04-03T13:14:25.710Z,22.99
2019-04-03T13:17:24.064Z,22.24
2019-04-03T13:20:27.821Z,23.48
2019-04-03T13:23:31.368Z,25.52
2019-04-03T13:26:34.911Z,26.61
2019-04-03T13:29:40.275Z,24.98
2019-04-03T13:32:43.479Z,23.06
2019-04-03T13:35:48.143Z,21.62
2019-04-03T13:38:52.325Z,20.83
2019-04-03T13:41:56.125Z,21.12
2019-04-03T13:45:00.232Z,20.83
2019-04-03T13:48:03.794Z,19.94
2019-04-03T13:51:07.342Z,19.43
2019-04-03T13:54:10.789Z,19.18
2019-04-03T13:57:15.449Z,18.93
2019-04-03T14:00:22.705Z,19.32
2019-04-03T14:03:25.023Z,19.20
2019-04-03T14:06:29.851Z,19.21
2019-04-03T14:09:33.241Z,19.46
2019-04-03T14:12:38.782Z,19.20
2019-04-03T14:15:42.219Z,19.46
2019-04-03T14:18:45.922Z,19.50
2019-04-03T14:21:49.558Z,19.47
2019-04-03T14:24:53.181Z,19.31
2019-04-03T14:27:56.601Z,19.65
2019-04-03T14:31:00.425Z,20.02
2019-04-03T14:34:06.266Z,20.27
2019-04-03T14:37:09.688Z,20.36
2019-04-03T14:40:13.625Z,20.16
2019-04-03T14:43:17.447Z,20.39
2019-04-03T14:46:21.199Z,20.19
2019-04-03T14:49:25.410Z,19.90
2019-04-03T14:52:28.876Z,19.74
2019-04-03T14:55:45.218Z,19.63
2019-04-03T14:58:37.534Z,19.57
2019-04-03T15:01:40.990Z,19.25
2019-04-03T15:04:44.436Z,19.06
2019-04-03T15:07:50.566Z,19.03
2019-04-03T15:10:52.977Z,19.01
2019-04-03T15:13:56.379Z,18.94
2019-04-03T15:16:59.792Z,18.64
2019-04-03T15:20:05.424Z,18.69
2019-04-03T15:23:08.829Z,18.53
2019-04-03T15:26:12.557Z,18.50
2019-04-03T15:29:15.918Z,18.55
2019-04-03T15:32:20.042Z,18.42
2019-04-03T15:35:24.317Z,18.45
2019-04-03T15:38:27.779Z,18.35
2019-04-03T15:41:34.183Z,18.55
2019-04-03T15:44:36.347Z,18.55
2019-04-03T15:47:45.066Z,18.56
2019-04-03T15:50:45.405Z,18.33
2019-04-03T15:53:48.944Z,18.41
2019-04-03T15:56:52.493Z,18.23
2019-04-03T15:59:56.458Z,18.14
2019-04-03T16:03:00.326Z,18.18
2019-04-03T16:06:04.734Z,18.20
2019-04-03T16:09:09.099Z,18.20
2019-04-03T16:12:12.638Z,18.23
2019-04-03T16:15:16.037Z,18.24
2019-04-03T16:18:21.087Z,18.24
2019-04-03T16:21:25.043Z,18.28
2019-04-03T16:24:28.466Z,18.25
2019-04-03T16:27:31.893Z,17.98
2019-04-03T16:30:35.539Z,17.85
2019-04-03T16:33:39.011Z,17.83
2019-04-03T16:36:42.383Z,17.69
2019-04-03T16:39:45.792Z,17.66
2019-04-03T16:42:52.381Z,17.62
2019-04-03T16:45:54.307Z,17.58
2019-04-03T16:48:57.930Z,17.53
2019-04-03T16:52:03.404Z,17.53
2019-04-03T16:55:07.891Z,17.43
2019-04-03T16:58:12.941Z,17.32
2019-04-03T17:01:16.384Z,17.32
2019-04-03T17:04:26.112Z,17.37
2019-04-03T17:07:25.296Z,17.33
2019-04-03T17:10:28.777Z,17.22
2019-04-03T17:13:32.183Z,17.17
2019-04-03T17:16:37.080Z,17.08
2019-04-03T17:19:42.622Z,16.94
2019-04-03T17:22:46.885Z,16.93
2019-04-03T17:25:51.666Z,16.88
2019-04-03T17:29:02.477Z,16.86
2019-04-03T17:32:00.851Z,16.78
2019-04-03T17:35:07.402Z,16.68
2019-04-03T17:38:11.834Z,16.56
2019-04-03T17:41:15.385Z,16.46
2019-04-03T17:44:18.783Z,16.42
2019-04-03T17:47:22.203Z,16.36
2019-04-03T17:50:25.698Z,16.28
2019-04-03T17:53:29.058Z,16.13
2019-04-03T17:56:32.401Z,16.01
2019-04-03T17:59:35.987Z,15.88
2019-04-03T18:02:39.443Z,15.83
2019-04-03T18:05:42.712Z,15.68
2019-04-03T18:08:46.037Z,15.56
2019-04-03T18:11:49.352Z,15.56
2019-04-03T18:14:52.683Z,15.50
2019-04-03T18:17:56.028Z,15.54
2019-04-03T18:20:59.341Z,15.49
2019-04-03T18:24:02.675Z,15.41
2019-04-03T18:27:06.556Z,15.35
2019-04-03T18:30:11.965Z,15.33
2019-04-03T18:33:17.033Z,15.23
2019-04-03T18:36:27.336Z,15.19
2019-04-03T18:39:35.268Z,15.11
2019-04-03T18:42:40.299Z,14.95
2019-04-03T18:45:43.749Z,14.93
2019-04-03T18:48:53.250Z,14.86
2019-04-03T18:51:52.254Z,14.87
2019-04-03T18:54:55.707Z,14.79
2019-04-03T18:57:59.040Z,14.71
2019-04-03T19:01:02.362Z,14.68
2019-04-03T19:04:07.255Z,14.63
2019-04-03T19:07:11.118Z,14.56
2019-04-03T19:10:14.590Z,14.51
2019-04-03T19:13:17.963Z,14.52
2019-04-03T19:16:29.304Z,14.44
2019-04-03T19:19:26.526Z,14.41
2019-04-03T19:22:29.849Z,14.43
2019-04-03T19:25:33.451Z,14.46
2019-04-03T19:28:36.789Z,14.42
2019-04-03T19:31:41.082Z,14.37
2019-04-03T19:38:19.132Z,14.32
2019-04-03T19:41:22.486Z,14.28
2019-04-03T19:44:25.843Z,14.28
2019-04-03T19:47:30.005Z,14.36
2019-04-03T19:50:33.341Z,14.42
2019-04-03T19:53:36.714Z,14.51
2019-04-03T19:56:40.063Z,14.54
2019-04-03T19:59:43.402Z,14.64
2019-04-03T20:02:46.762Z,14.73
2019-04-03T20:05:50.875Z,14.73
2019-04-03T20:08:54.333Z,14.77
2019-04-03T20:11:57.673Z,14.75
2019-04-03T20:15:02.358Z,14.70
2019-04-03T20:18:06.015Z,14.63
2019-04-03T20:21:09.642Z,14.63
2019-04-03T20:24:13.443Z,14.56
2019-04-03T20:27:17.210Z,14.52
2019-04-03T20:30:20.941Z,14.47
2019-04-03T20:33:24.340Z,14.43
2019-04-03T20:36:27.713Z,14.50
2019-04-03T20:39:33.717Z,14.54
2019-04-03T20:42:36.202Z,14.51
2019-04-03T20:45:39.597Z,14.58
2019-04-03T20:48:42.918Z,14.62
2019-04-03T20:51:48.571Z,14.58
2019-04-03T20:54:53.286Z,14.49
2019-04-03T20:57:56.410Z,14.48
2019-04-03T21:01:06.974Z,14.41
2019-04-03T21:04:04.870Z,14.38
2019-04-03T21:07:08.244Z,14.33
2019-04-03T21:10:11.582Z,14.36
2019-04-03T21:13:15.547Z,14.28
2019-04-03T21:16:18.991Z,14.26
2019-04-03T21:19:22.325Z,14.23
2019-04-03T21:22:25.688Z,14.18
2019-04-03T21:25:29.001Z,14.16
2019-04-03T21:28:32.347Z,14.10
2019-04-03T21:31:35.685Z,14.02
2019-04-03T21:34:38.998Z,14.03
2019-04-03T21:37:42.351Z,14.03
2019-04-03T21:40:46.958Z,13.95
2019-04-03T21:43:50.722Z,13.91
2019-04-03T21:46:54.102Z,13.83
2019-04-03T21:49:57.398Z,13.88
2019-04-03T21:53:00.726Z,13.82
2019-04-03T21:56:04.075Z,13.77
2019-04-03T21:59:08.988Z,13.68
2019-04-03T22:02:14.048Z,13.68
2019-04-03T22:05:17.549Z,13.59
2019-04-03T22:08:20.950Z,13.64
2019-04-03T22:11:24.288Z,13.57
2019-04-03T22:14:27.592Z,13.51
2019-04-03T22:17:30.937Z,13.52
2019-04-03T22:20:34.236Z,13.48
2019-04-03T22:23:37.559Z,13.41
2019-04-03T22:26:41.379Z,13.37
2019-04-03T22:29:44.663Z,13.34
2019-04-03T22:32:48.004Z,13.31
2019-04-03T22:35:51.307Z,13.27
2019-04-03T22:38:54.631Z,13.19
2019-04-03T22:41:57.949Z,13.16
2019-04-03T22:45:01.262Z,13.09
2019-04-03T22:48:04.576Z,13.07
2019-04-03T22:51:07.873Z,13.11
2019-04-03T22:54:12.766Z,12.99
2019-04-03T22:57:16.202Z,12.93
2019-04-03T23:00:19.607Z,12.91
2019-04-03T23:03:22.945Z,12.74
2019-04-03T23:06:26.464Z,12.76
2019-04-03T23:09:29.777Z,12.67
2019-04-03T23:12:35.965Z,12.61
2019-04-03T23:15:39.889Z,12.54
2019-04-03T23:18:46.581Z,12.41
2019-04-03T23:21:48.316Z,12.43
2019-04-03T23:24:51.648Z,12.28
2019-04-03T23:27:54.952Z,12.16
2019-04-03T23:30:58.271Z,12.25
2019-04-03T23:34:01.600Z,12.15
2019-04-03T23:37:04.917Z,12.11
2019-04-03T23:40:08.272Z,12.12
2019-04-03T23:43:11.608Z,12.03
2019-04-03T23:46:15.305Z,11.93
2019-04-03T23:49:20.189Z,11.89
2019-04-03T23:52:23.936Z,11.77
2019-04-03T23:55:27.275Z,11.71
2019-04-03T23:58:30.605Z,11.63
